»·PEaware :: SWA2842 KSNA-KSNA

SWA2842 :: KSNA-KSNA

FLIGHT INFORMATION

Flight Status: Arrived
Operator:
Southwest Airlines
More flights by this operator :: More flights under this callsign
Pilot: Cody B. (17747)
Aircraft: BOEING 737-800
(B738)
More flights by this aircraft type
Origin: KSNA John Wayne-Orange Co
United States
Destination: KSNA John Wayne-Orange Co
United States
More flights between these airports :: More routes between these airports
Route: +SLI
File this flight plan on PilotEdge
Remarks: For the I-1 Rating, Good Morning
Altitude:
(Current/Filed)
3,000ft
Speed:
(Current/Filed)
200kts
Departed: 06-Jan-18 02:20 PM
Arrived: 06-Jan-18 02:47 PM
Distance/Time
Traveled:
0nm/0:27
Distance/Time
To Go:
Arrived

Flight Plot

Page will automatically refresh every two minutes.


Map Options




Map Legend


Flown Route
Filed Route
Departure Airport
Arrival Airport
Navaid (VOR, NDB)
Fix

Horizontal Profiles

Position Reports

Time Latitude Longitude Heading Altitude Ground
Speed
06-Jan-18 13:58 33.680063 -117.861898 105 41ft 0kts
06-Jan-18 13:59 33.680063 -117.861898 105 41ft 0kts
06-Jan-18 14:00 33.680063 -117.861898 105 41ft 0kts
06-Jan-18 14:01 33.680063 -117.861898 105 41ft 0kts
06-Jan-18 14:02 33.680063 -117.861898 105 41ft 0kts
06-Jan-18 14:03 33.680063 -117.861898 105 41ft 0kts
06-Jan-18 14:04 33.680063 -117.861898 105 41ft 0kts
06-Jan-18 14:05 33.680063 -117.861898 105 41ft 0kts
06-Jan-18 14:06 33.680063 -117.861898 105 41ft 0kts
06-Jan-18 14:07 33.680063 -117.861898 105 41ft 0kts
06-Jan-18 14:08 33.680063 -117.861898 105 41ft 0kts
06-Jan-18 14:09 33.680063 -117.861898 105 41ft 0kts
06-Jan-18 14:10 33.680063 -117.861898 105 41ft 0kts
06-Jan-18 14:11 33.680063 -117.861898 105 41ft 0kts
06-Jan-18 14:12 33.680152 -117.862322 88 42ft 2kts
06-Jan-18 14:13 33.679898 -117.862827 26 43ft 1kts
06-Jan-18 14:14 33.679873 -117.862842 28 43ft 0kts
06-Jan-18 14:15 33.679873 -117.862842 28 43ft 0kts
06-Jan-18 14:16 33.679873 -117.862842 28 43ft 0kts
06-Jan-18 14:17 33.679873 -117.862842 28 43ft 0kts
06-Jan-18 14:18 33.679873 -117.862842 28 43ft 0kts
06-Jan-18 14:19 33.680034 -117.862736 28 42ft 3kts
06-Jan-18 14:20 33.680912 -117.862172 27 41ft 0kts
06-Jan-18 14:21 33.680359 -117.862514 28 42ft 1kts
06-Jan-18 14:22 33.680409 -117.862558 322 42ft 0kts
06-Jan-18 14:23 33.680636 -117.863053 297 43ft 1kts
06-Jan-18 14:24 33.680808 -117.863443 297 44ft 6kts
06-Jan-18 14:25 33.680604 -117.865716 207 44ft 10kts
06-Jan-18 14:26 33.645288 -117.881848 187 802ft 220kts
06-Jan-18 14:27 33.582803 -117.886116 186 2984ft 243kts
06-Jan-18 14:28 33.515248 -117.882973 154 2998ft 253kts
06-Jan-18 14:29 33.496646 -117.807817 55 3090ft 271kts
06-Jan-18 14:30 33.555650 -117.753783 31 4990ft 272kts
06-Jan-18 14:31 33.617154 -117.704946 13 4967ft 242kts
06-Jan-18 14:32 33.673080 -117.684066 11 4996ft 199kts
06-Jan-18 14:33 33.726396 -117.664228 11 4992ft 201kts
06-Jan-18 14:34 33.779967 -117.643999 11 4984ft 202kts
06-Jan-18 14:35 33.832882 -117.623258 11 4983ft 199kts
06-Jan-18 14:36 33.871085 -117.647133 291 4987ft 169kts
06-Jan-18 14:37 33.885984 -117.700368 261 4789ft 181kts
06-Jan-18 14:38 33.848074 -117.743080 222 4533ft 189kts
06-Jan-18 14:39 33.814272 -117.797216 271 3028ft 246kts
06-Jan-18 14:40 33.858747 -117.850711 353 2989ft 254kts
06-Jan-18 14:41 33.911976 -117.795731 77 2978ft 276kts
06-Jan-18 14:42 33.911143 -117.709145 81 2935ft 217kts
06-Jan-18 14:43 33.922920 -117.643590 90 2991ft 203kts
06-Jan-18 14:44 33.953938 -117.630408 276 3079ft 171kts
06-Jan-18 14:45 33.926983 -117.678436 233 2989ft 182kts
06-Jan-18 14:46 33.893791 -117.725077 238 2986ft 184kts
06-Jan-18 14:47 33.855138 -117.763315 189 3064ft 194kts
06-Jan-18 14:48 33.806679 -117.785732 212 2995ft 185kts
06-Jan-18 14:49 33.767405 -117.810497 210 1944ft 137kts
06-Jan-18 14:50 33.733795 -117.831820 209 1223ft 137kts
06-Jan-18 14:51 33.700436 -117.853065 208 485ft 131kts
06-Jan-18 14:52 33.672363 -117.870932 210 54ft 56kts
06-Jan-18 14:53 33.669705 -117.872070 158 57ft 2kts
06-Jan-18 14:54 33.669817 -117.870210 41 54ft 8kts
06-Jan-18 14:55 33.671754 -117.868354 28 53ft 8kts
06-Jan-18 14:56 33.673809 -117.866657 26 50ft 7kts
06-Jan-18 14:57 33.675366 -117.865687 26 48ft 8kts
06-Jan-18 14:58 33.675795 -117.864826 114 47ft 2kts
06-Jan-18 14:59 33.675733 -117.864668 115 47ft 0kts
06-Jan-18 15:00 33.675729 -117.864660 115 47ft 0kts
06-Jan-18 15:01 33.675729 -117.864660 115 47ft 0kts
06-Jan-18 15:02 33.675729 -117.864660 115 47ft 0kts
06-Jan-18 15:03 33.675729 -117.864660 115 47ft 0kts

Navigation Log

Ident Type
1. KSNA Airport
2. SLI Navaid
3. KSNA Airport